Silva, Missouri
Current Conditions -  °F | °C
As of 7:53 AM on Friday 24 Oct 2014 (Local Time) from KPOF Reporting Station
Haze Haze  
Wind Chill: 49°   Ceiling: 2600
Heat Index: 49°   Visibility: 6mi
Dew Point: 45°   Wind: 0mph
Humidity: 86%   Direction: NA
Pressure: 30.13"   Gusts: NA
Location:  37.18°N, 90.46°W
Report Text: KPOF 241253Z AUTO 00000KT 6SM BR BKN026 BKN048 09/07 A3013 RMK AO2 SLP204 T00940072
Loading
Personal Weather Stations






























Interactive Weather Map
Tropical Storm Tracking
New forecast layout! Learn more

10-Day Weather Forecast

Advertisements
Track Severe Weather on mobile